Time;durP1;ratioP1;P1;durP2;ratioP2;P2;SDS_P1;SDS_P2;PMS_P1;PMS_P2;Temp;Humidity;BMP_temperature;BMP_pressure;BME280_temperature;BME280_humidity;BME280_pressure;Samples;Min_cycle;Max_cycle;Signal;HPM_P1;HPM_P2
2023/09/28 00:01:30;;;;;;;;;;;;;;;12.17;100.00;98591.38;6107051;19;20014;-74
2023/09/28 00:03:30;;;;;;;10.80;8.02;;;;;;;12.16;100.00;98600.03;6109528;19;19929;-74
2023/09/28 00:05:31;;;;;;;16.00;8.43;;;;;;;12.15;100.00;98595.69;6109548;19;20003;-74
2023/09/28 00:07:31;;;;;;;12.95;8.40;;;;;;;12.10;100.00;98594.09;6109896;19;20014;-74
2023/09/28 00:09:32;;;;;;;13.23;8.80;;;;;;;12.07;100.00;98586.50;6108835;19;20467;-74
2023/09/28 00:11:33;;;;;;;11.88;7.88;;;;;;;12.05;100.00;98592.44;6109924;19;20034;-74
2023/09/28 00:13:33;;;;;;;13.50;8.55;;;;;;;12.02;100.00;98586.88;6110415;19;20003;-74
2023/09/28 00:15:34;;;;;;;12.88;8.55;;;;;;;11.98;100.00;98586.06;6106629;19;19998;-74
2023/09/28 00:17:34;;;;;;;11.27;7.70;;;;;;;11.94;100.00;98590.78;6110204;19;20020;-73
2023/09/28 00:19:35;;;;;;;12.13;7.95;;;;;;;11.90;100.00;98590.75;6108541;19;20043;-74
2023/09/28 00:21:35;;;;;;;12.20;7.90;;;;;;;11.82;100.00;98584.34;6108538;19;20007;-74
2023/09/28 00:23:36;;;;;;;11.57;7.85;;;;;;;11.77;100.00;98579.16;6109449;19;20327;-74
2023/09/28 00:25:36;;;;;;;13.15;8.65;;;;;;;11.72;100.00;98587.00;6110186;19;20338;-74
2023/09/28 00:27:38;;;;;;;14.82;8.70;;;;;;;11.72;100.00;98587.00;6108955;19;20110;-73
2023/09/28 00:29:39;;;;;;;14.45;9.15;;;;;;;11.70;100.00;98586.59;6108236;19;20034;-74
2023/09/28 00:31:39;;;;;;;9.43;7.13;;;;;;;11.66;100.00;98589.31;6109433;19;20010;-74
2023/09/28 00:33:39;;;;;;;8.43;7.05;;;;;;;11.70;100.00;98581.84;6108459;19;20445;-74
2023/09/28 00:35:40;;;;;;;13.13;8.68;;;;;;;11.69;100.00;98587.78;6108815;19;20006;-73
2023/09/28 00:37:41;;;;;;;12.00;9.10;;;;;;;11.72;100.00;98596.13;6108945;19;20034;-74
2023/09/28 00:39:41;;;;;;;10.65;7.97;;;;;;;11.70;100.00;98592.13;6105854;19;20067;-74
2023/09/28 00:41:41;;;;;;;15.13;8.40;;;;;;;11.68;100.00;98595.31;6108484;19;19998;-74
2023/09/28 00:43:42;;;;;;;15.77;9.07;;;;;;;11.60;100.00;98592.84;6108497;19;20017;-74
2023/09/28 00:45:43;;;;;;;11.70;8.57;;;;;;;11.56;100.00;98592.78;6109040;19;20286;-74
2023/09/28 00:47:44;;;;;;;23.02;9.57;;;;;;;11.54;100.00;98584.88;6108694;19;20041;-74
2023/09/28 00:49:45;;;;;;;15.90;9.38;;;;;;;11.50;100.00;98588.78;6106978;19;20017;-75
2023/09/28 00:51:47;;;;;;;13.60;8.63;;;;;;;11.48;100.00;98586.38;6108076;19;20002;-73
2023/09/28 00:53:47;;;;;;;12.60;7.97;;;;;;;11.42;100.00;98581.56;6109126;19;20353;-73
2023/09/28 00:55:48;;;;;;;14.27;9.55;;;;;;;11.40;100.00;98584.72;6108786;19;20021;-74
2023/09/28 00:57:50;;;;;;;11.93;8.52;;;;;;;11.41;100.00;98579.97;6107985;19;20415;-74
2023/09/28 00:59:50;;;;;;;10.65;8.00;;;;;;;11.35;100.00;98574.00;6106589;19;20016;-74
2023/09/28 01:01:51;;;;;;;10.13;7.68;;;;;;;11.35;100.00;98576.00;6108717;19;20010;-73
2023/09/28 01:03:51;;;;;;;14.57;8.98;;;;;;;11.29;100.00;98580.28;6108251;19;19999;-73
2023/09/28 01:05:52;;;;;;;13.38;8.82;;;;;;;11.23;100.00;98582.56;6107195;19;20007;-74
2023/09/28 01:07:53;;;;;;;11.43;9.00;;;;;;;11.18;100.00;98580.97;6109226;19;20033;-74
2023/09/28 01:09:54;;;;;;;13.00;8.40;;;;;;;11.15;100.00;98578.94;6106803;19;20009;-74
2023/09/28 01:11:55;;;;;;;11.38;8.30;;;;;;;11.15;100.00;98575.38;6108242;19;20009;-74
2023/09/28 01:13:56;;;;;;;12.38;7.90;;;;;;;11.12;100.00;98578.91;6106045;19;20011;-74
2023/09/28 01:15:56;;;;;;;12.50;8.10;;;;;;;11.08;100.00;98575.28;6107239;19;20023;-74
2023/09/28 01:17:57;;;;;;;17.35;9.32;;;;;;;11.06;100.00;98577.66;6107024;19;20005;-74
2023/09/28 01:19:59;;;;;;;14.98;8.35;;;;;;;11.02;100.00;98574.06;6106025;19;20015;-73
2023/09/28 01:22:02;;;;;;;19.45;9.07;;;;;;;10.94;100.00;98581.47;6107851;19;20713;-73
2023/09/28 01:24:03;;;;;;;13.40;8.55;;;;;;;10.90;100.00;98580.63;6107449;19;20021;-73
2023/09/28 01:26:03;;;;;;;10.85;8.07;;;;;;;10.86;100.00;98568.72;6107149;19;20047;-74
2023/09/28 01:28:05;;;;;;;13.63;9.43;;;;;;;10.84;100.00;98571.06;6107975;19;20034;-74
2023/09/28 01:30:06;;;;;;;17.83;9.23;;;;;;;10.83;100.00;98570.25;6106715;19;20011;-73
2023/09/28 01:32:07;;;;;;;11.73;8.10;;;;;;;10.82;100.00;98576.19;6106321;19;20014;-73
2023/09/28 01:34:07;;;;;;;11.82;8.40;;;;;;;10.82;100.00;98573.41;6107709;19;20526;-73
2023/09/28 01:36:07;;;;;;;14.27;9.27;;;;;;;10.84;100.00;98566.34;6106872;19;20003;-74
2023/09/28 01:38:28;;;;;;;15.98;9.45;;;;;;;10.82;100.00;98567.88;6107467;19;20287;-73
2023/09/28 01:40:28;;;;;;;16.10;9.65;;;;;;;10.77;100.00;98563.50;6105578;19;20465;-73
2023/09/28 01:42:29;;;;;;;12.68;8.90;;;;;;;10.76;100.00;98569.38;6106998;19;20018;-73
2023/09/28 01:44:29;;;;;;;15.45;7.95;;;;;;;10.69;100.00;98564.59;6107821;19;20018;-73
2023/09/28 01:46:29;;;;;;;12.55;8.98;;;;;;;10.67;100.00;98564.97;6106086;19;20015;-74
2023/09/28 01:48:30;;;;;;;15.38;9.70;;;;;;;10.63;100.00;98561.34;6107181;19;20335;-73
2023/09/28 01:50:31;;;;;;;13.73;9.52;;;;;;;10.65;100.00;98552.66;6096536;19;20019;-74
2023/09/28 01:52:31;;;;;;;12.88;9.02;;;;;;;10.63;100.00;98557.78;6103953;19;20010;-73
2023/09/28 01:54:31;;;;;;;16.52;8.77;;;;;;;10.58;100.00;98556.13;6107223;19;20455;-73
2023/09/28 01:56:32;;;;;;;12.13;8.57;;;;;;;10.59;100.00;98551.38;6108000;19;20029;-74
2023/09/28 01:58:32;;;;;;;13.02;8.45;;;;;;;10.55;100.00;98548.59;6106763;19;20034;-73
2023/09/28 02:00:34;;;;;;;16.85;9.43;;;;;;;10.55;100.00;98550.56;6105870;19;20003;-75
2023/09/28 02:02:36;;;;;;;12.13;8.52;;;;;;;10.55;100.00;98545.81;6107132;19;20024;-73
2023/09/28 02:04:37;;;;;;;11.40;8.30;;;;;;;10.54;100.00;98541.47;6106987;19;20074;-74
2023/09/28 02:06:38;;;;;;;13.32;8.88;;;;;;;10.51;100.00;98549.69;6105948;19;20010;-73
2023/09/28 02:08:38;;;;;;;15.38;8.68;;;;;;;10.52;100.00;98551.31;6107492;19;20028;-73
2023/09/28 02:10:40;;;;;;;10.98;7.95;;;;;;;10.49;100.00;98554.81;6106074;19;20007;-73
2023/09/28 02:12:44;;;;;;;11.93;8.73;;;;;;;10.47;100.00;98541.38;6105982;19;20018;-73
2023/09/28 02:14:44;;;;;;;13.43;9.07;;;;;;;10.39;100.00;98546.00;6104280;19;20010;-73
2023/09/28 02:16:44;;;;;;;11.63;9.30;;;;;;;10.33;100.00;98536.44;6106406;19;20013;-73
2023/09/28 02:18:46;;;;;;;15.63;9.43;;;;;;;10.34;100.00;98543.59;6106800;19;20006;-73
2023/09/28 02:20:46;;;;;;;14.40;9.25;;;;;;;10.34;100.00;98543.59;6106197;19;20010;-73
2023/09/28 02:22:47;;;;;;;14.18;9.85;;;;;;;10.34;100.00;98546.34;6105968;19;20573;-73
2023/09/28 02:24:47;;;;;;;12.02;8.80;;;;;;;10.34;100.00;98551.06;6107466;19;20494;-73
2023/09/28 02:26:48;;;;;;;17.60;9.85;;;;;;;10.30;100.00;98553.00;6113271;19;20522;-73
2023/09/28 02:28:48;;;;;;;15.30;8.77;;;;;;;10.26;100.00;98549.38;6112049;19;20415;-73
2023/09/28 02:30:49;;;;;;;12.23;8.85;;;;;;;10.23;100.00;98552.91;6110993;19;20007;-73
2023/09/28 02:32:50;;;;;;;13.75;9.18;;;;;;;10.20;100.00;98551.66;6112739;19;20030;-73
2023/09/28 02:34:51;;;;;;;15.68;8.95;;;;;;;10.19;100.00;98557.56;6112815;19;20026;-73
2023/09/28 02:36:54;;;;;;;15.25;9.88;;;;;;;10.19;100.00;98555.59;6112563;19;20007;-73
2023/09/28 02:38:54;;;;;;;15.90;10.43;;;;;;;10.19;100.00;98558.34;6110844;19;19998;-73
2023/09/28 02:40:54;;;;;;;17.52;10.52;;;;;;;10.17;100.00;98559.88;6111373;19;20357;-74
2023/09/28 02:42:55;;;;;;;18.52;11.82;;;;;;;10.13;100.00;98559.84;6111447;19;20010;-73
2023/09/28 02:44:56;;;;;;;16.55;10.75;;;;;;;10.13;100.00;98559.84;6111685;19;20070;-73
2023/09/28 02:46:57;;;;;;;18.23;12.13;;;;;;;10.09;100.00;98558.97;6112023;19;20026;-74
2023/09/28 02:48:57;;;;;;;21.83;11.38;;;;;;;10.07;100.00;98556.59;6111226;19;20006;-74
2023/09/28 02:50:58;;;;;;;20.77;11.75;;;;;;;10.07;100.00;98561.31;6102929;19;20002;-74
2023/09/28 02:52:58;;;;;;;19.60;11.27;;;;;;;10.07;100.00;98561.31;6104146;19;20018;-73
2023/09/28 02:54:58;;;;;;;19.92;11.18;;;;;;;10.07;100.00;98558.56;6105270;19;20078;-73
2023/09/28 02:56:59;;;;;;;15.60;10.27;;;;;;;10.02;100.00;98559.69;6103530;19;20058;-74
2023/09/28 02:58:59;;;;;;;18.80;12.02;;;;;;;9.99;100.00;98560.41;6103736;19;20002;-74
2023/09/28 03:01:01;;;;;;;17.05;10.75;;;;;;;9.99;100.00;98563.19;6104180;19;20002;-74
2023/09/28 03:03:05;;;;;;;18.67;13.43;;;;;;;9.92;100.00;98554.78;6103893;19;20013;-73
2023/09/28 03:05:07;;;;;;;19.10;11.82;;;;;;;9.95;100.00;98565.09;6104147;19;19999;-74
2023/09/28 03:07:07;;;;;;;19.00;11.75;;;;;;;9.91;100.00;98569.78;6104339;19;20002;-73
2023/09/28 03:09:11;;;;;;;18.25;10.40;;;;;;;9.96;100.00;98569.47;6104004;19;20085;-73
2023/09/28 03:11:12;;;;;;;17.27;11.32;;;;;;;9.93;100.00;98567.47;6102970;19;20347;-73
2023/09/28 03:13:13;;;;;;;17.13;11.35;;;;;;;9.92;100.00;98579.66;6103461;19;20003;-74
2023/09/28 03:15:13;;;;;;;16.65;10.82;;;;;;;9.92;100.00;98581.63;6102290;19;20027;-74
2023/09/28 03:17:14;;;;;;;13.63;10.25;;;;;;;9.92;100.00;98578.84;6103753;19;20005;-73
2023/09/28 03:19:14;;;;;;;19.77;10.88;;;;;;;9.86;100.00;98583.91;6104223;19;20489;-74
2023/09/28 03:21:14;;;;;;;16.33;11.38;;;;;;;9.86;100.00;98583.91;6102429;19;20025;-73
2023/09/28 03:23:15;;;;;;;17.65;11.55;;;;;;;9.83;100.00;98581.88;6103232;19;20011;-74
2023/09/28 03:25:17;;;;;;;19.48;12.25;;;;;;;9.85;100.00;98579.56;6104003;19;20028;-74
2023/09/28 03:27:18;;;;;;;18.65;11.02;;;;;;;9.82;100.00;98574.75;6103862;19;20016;-73
2023/09/28 03:29:18;;;;;;;16.33;11.38;;;;;;;9.83;100.00;98577.16;6102337;19;20078;-74
2023/09/28 03:31:18;;;;;;;16.23;11.50;;;;;;;9.84;100.00;98578.75;6102062;19;20018;-73
2023/09/28 03:33:18;;;;;;;19.45;12.40;;;;;;;9.83;100.00;98565.31;6103885;19;20003;-73
2023/09/28 03:35:20;;;;;;;19.25;12.30;;;;;;;9.86;100.00;98559.06;6103616;19;20320;-74
2023/09/28 03:37:20;;;;;;;32.10;14.52;;;;;;;9.85;100.00;98558.25;6103099;19;20391;-74
2023/09/28 03:39:21;;;;;;;16.60;11.63;;;;;;;9.92;100.00;98559.50;6102822;19;20003;-74
2023/09/28 03:41:21;;;;;;;17.23;11.15;;;;;;;9.91;100.00;98555.94;6101659;19;19999;-73
2023/09/28 03:43:21;;;;;;;15.15;10.95;;;;;;;9.93;100.00;98552.81;6102885;19;20043;-73
2023/09/28 03:45:22;;;;;;;21.23;11.73;;;;;;;9.89;100.00;98554.75;6103692;19;20015;-73
2023/09/28 03:47:22;;;;;;;15.98;11.18;;;;;;;9.83;100.00;98560.56;6102975;19;20363;-73
2023/09/28 03:49:23;;;;;;;14.90;11.02;;;;;;;9.81;100.00;98570.41;6101252;19;20021;-73
2023/09/28 03:51:23;;;;;;;14.50;10.35;;;;;;;9.83;100.00;98574.38;6109377;19;19998;-73
2023/09/28 03:53:24;;;;;;;17.92;11.27;;;;;;;9.81;100.00;98575.94;6110149;19;20037;-73
2023/09/28 03:55:24;;;;;;;18.95;10.63;;;;;;;9.76;100.00;98577.06;6109715;19;20339;-73
2023/09/28 03:57:24;;;;;;;18.42;10.82;;;;;;;9.72;100.00;98586.44;6108884;19;20505;-73
2023/09/28 03:59:25;;;;;;;16.02;11.07;;;;;;;9.71;100.00;98585.66;6109384;19;20089;-73
2023/09/28 04:01:26;;;;;;;19.17;11.50;;;;;;;9.72;100.00;98592.78;6108868;19;20375;-73
2023/09/28 04:03:27;;;;;;;19.42;11.45;;;;;;;9.75;100.00;98597.53;6109863;19;20003;-73
2023/09/28 04:05:27;;;;;;;19.27;11.35;;;;;;;9.77;100.00;98606.28;6110769;19;20027;-73
2023/09/28 04:07:27;;;;;;;20.35;11.27;;;;;;;9.74;100.00;98607.00;6106964;19;20868;-73
2023/09/28 04:09:28;;;;;;;17.42;10.77;;;;;;;9.76;100.00;98614.91;6109510;19;20313;-73
2023/09/28 04:11:28;;;;;;;16.45;10.68;;;;;;;9.72;100.00;98614.88;6108161;19;20405;-73
2023/09/28 04:13:28;;;;;;;14.23;9.40;;;;;;;9.69;100.00;98607.34;6109081;19;20564;-73
2023/09/28 04:15:29;;;;;;;13.10;9.02;;;;;;;9.70;100.00;98616.41;6107230;19;20007;-72
2023/09/28 04:17:30;;;;;;;14.38;10.65;;;;;;;9.72;100.00;98606.59;6108619;19;20015;-74
2023/09/28 04:19:30;;;;;;;17.08;9.88;;;;;;;9.73;100.00;98615.66;6108994;19;20030;-73
2023/09/28 04:21:30;;;;;;;15.25;9.93;;;;;;;9.75;100.00;98613.31;6108330;19;20598;-73
2023/09/28 04:23:31;;;;;;;15.15;10.35;;;;;;;9.74;100.00;98608.97;6108843;19;20010;-73
2023/09/28 04:25:32;;;;;;;17.50;9.88;;;;;;;9.77;100.00;98611.00;6108870;19;20132;-73
2023/09/28 04:27:32;;;;;;;15.52;9.60;;;;;;;9.78;100.00;98626.41;6108808;19;20014;-72
2023/09/28 04:29:32;;;;;;;13.18;9.15;;;;;;;9.82;100.00;98614.25;6108342;19;20007;-73
2023/09/28 04:31:33;;;;;;;14.73;9.65;;;;;;;9.87;100.00;98609.59;6107554;19;20031;-74
2023/09/28 04:33:33;;;;;;;28.25;14.20;;;;;;;9.85;100.00;98616.28;6109499;19;20022;-72
2023/09/28 04:35:33;;;;;;;22.33;11.68;;;;;;;9.87;100.00;98615.91;6109477;19;20074;-75
2023/09/28 04:37:34;;;;;;;19.80;11.30;;;;;;;9.87;100.00;98612.34;6108388;19;20010;-73
2023/09/28 04:39:34;;;;;;;18.77;11.57;;;;;;;9.81;100.00;98595.28;6109055;19;20033;-73
2023/09/28 04:41:35;;;;;;;18.08;10.32;;;;;;;9.79;100.00;98606.72;6107509;19;20018;-73
2023/09/28 04:43:35;;;;;;;18.83;10.68;;;;;;;9.82;100.00;98603.19;6106777;19;20014;-75
2023/09/28 04:45:35;;;;;;;17.75;11.60;;;;;;;9.84;100.00;98600.84;6108907;19;20003;-73
2023/09/28 04:47:36;;;;;;;17.13;10.73;;;;;;;9.87;100.00;98604.06;6106776;19;20415;-75
2023/09/28 04:49:37;;;;;;;18.15;11.43;;;;;;;9.91;100.00;98605.69;6107032;19;20006;-73
2023/09/28 04:51:37;;;;;;;17.55;9.88;;;;;;;9.96;100.00;98601.84;6109204;19;20428;-73
2023/09/28 04:53:38;;;;;;;16.70;10.70;;;;;;;9.97;100.00;98606.19;6108128;19;20003;-72
2023/09/28 04:55:38;;;;;;;17.60;10.52;;;;;;;9.97;100.00;98612.50;6107623;19;20636;-73
2023/09/28 04:57:39;;;;;;;17.52;11.32;;;;;;;9.95;100.00;98608.53;6108838;19;20006;-73
2023/09/28 04:59:40;;;;;;;17.45;10.55;;;;;;;9.96;100.00;98610.13;6107550;19;20038;-72
2023/09/28 05:01:40;;;;;;;20.70;11.85;;;;;;;9.99;100.00;98612.13;6107998;19;20002;-72
2023/09/28 05:03:40;;;;;;;21.33;11.52;;;;;;;9.98;100.00;98607.78;6108054;19;20013;-74
2023/09/28 05:05:41;;;;;;;19.00;10.88;;;;;;;9.96;100.00;98597.09;6108190;19;20298;-72
2023/09/28 05:07:42;;;;;;;17.08;10.73;;;;;;;9.96;100.00;98591.56;6107717;19;20007;-72
2023/09/28 05:09:44;;;;;;;22.35;11.23;;;;;;;9.95;100.00;98592.75;6106289;19;20014;-73
2023/09/28 05:11:44;;;;;;;25.38;11.23;;;;;;;9.92;100.00;98593.47;6107992;19;20454;-73
2023/09/28 05:13:45;;;;;;;16.27;11.00;;;;;;;9.92;100.00;98593.47;6108862;19;20052;-72
2023/09/28 05:15:45;;;;;;;21.60;10.57;;;;;;;9.95;100.00;98594.72;6105328;19;20045;-73
2023/09/28 05:17:47;;;;;;;20.90;9.98;;;;;;;9.98;100.00;98592.00;6107745;19;20006;-73
2023/09/28 05:19:48;;;;;;;15.40;9.77;;;;;;;9.96;100.00;98591.56;6106793;19;20007;-73
2023/09/28 05:21:49;;;;;;;26.98;10.90;;;;;;;9.94;100.00;98593.91;6108106;19;20974;-73
2023/09/28 05:23:50;;;;;;;16.88;10.48;;;;;;;9.98;100.00;98596.72;6107303;19;20002;-72
2023/09/28 05:25:50;;;;;;;22.52;11.18;;;;;;;9.96;100.00;98597.09;6108078;19;20561;-73
2023/09/28 05:27:51;;;;;;;17.25;10.15;;;;;;;9.92;100.00;98601.75;6108443;19;20006;-73
2023/09/28 05:29:52;;;;;;;21.25;10.00;;;;;;;9.92;100.00;98604.53;6106019;19;20050;-73
2023/09/28 05:31:52;;;;;;;21.25;10.07;;;;;;;9.93;100.00;98610.84;6107745;19;20015;-73
2023/09/28 05:33:52;;;;;;;19.08;9.93;;;;;;;9.92;100.00;98606.50;6108400;19;20026;-73
2023/09/28 05:35:53;;;;;;;22.73;12.02;;;;;;;9.91;100.00;98610.44;6106872;19;20530;-73
2023/09/28 05:37:53;;;;;;;17.52;10.55;;;;;;;9.90;100.00;98617.94;6106907;19;20015;-73
2023/09/28 05:39:54;;;;;;;18.90;10.00;;;;;;;9.91;100.00;98636.09;6105892;19;20094;-75
2023/09/28 05:41:54;;;;;;;18.52;11.38;;;;;;;9.91;100.00;98630.56;6107255;19;20010;-73
2023/09/28 05:43:54;;;;;;;15.43;10.68;;;;;;;9.91;100.00;98625.03;6107652;19;20441;-73
2023/09/28 05:45:56;;;;;;;18.90;11.48;;;;;;;9.95;100.00;98622.34;6107445;19;20003;-75
2023/09/28 05:47:56;;;;;;;17.58;10.93;;;;;;;9.98;100.00;98625.16;6107298;19;20513;-74
2023/09/28 05:49:56;;;;;;;20.60;11.32;;;;;;;10.01;100.00;98634.69;6105650;19;20029;-75
2023/09/28 05:51:57;;;;;;;16.65;10.73;;;;;;;10.03;100.00;98635.13;6106929;19;20014;-72
2023/09/28 05:53:57;;;;;;;16.98;10.85;;;;;;;10.05;100.00;98630.81;6106929;19;20235;-73
2023/09/28 05:55:57;;;;;;;18.30;10.85;;;;;;;10.10;100.00;98629.72;6106858;19;20082;-72
2023/09/28 05:57:58;;;;;;;18.85;10.77;;;;;;;10.17;100.00;98629.78;6107097;19;20010;-73
2023/09/28 05:59:58;;;;;;;15.35;10.38;;;;;;;10.22;100.00;98637.81;6108970;19;20029;-73
2023/09/28 06:01:59;;;;;;;21.58;11.77;;;;;;;10.27;100.00;98634.75;6112999;19;20371;-76
2023/09/28 06:03:59;;;;;;;17.23;10.48;;;;;;;10.32;100.00;98641.91;6112564;19;20006;-73
2023/09/28 06:05:59;;;;;;;25.02;10.43;;;;;;;10.32;100.00;98628.88;6111941;19;20346;-73
2023/09/28 06:08:00;;;;;;;29.77;11.82;;;;;;;10.40;100.00;98627.00;6112207;19;20010;-72
2023/09/28 06:10:02;;;;;;;21.92;11.52;;;;;;;10.41;100.00;98626.63;6111191;19;20007;-74
2023/09/28 06:12:02;;;;;;;26.42;12.23;;;;;;;10.46;100.00;98631.06;6112035;19;20375;-75
2023/09/28 06:14:03;;;;;;;23.63;11.77;;;;;;;10.46;100.00;98631.06;6113163;19;20466;-75
2023/09/28 06:16:03;;;;;;;26.85;10.77;;;;;;;10.50;100.00;98642.16;6110182;19;20033;-75
2023/09/28 06:18:04;;;;;;;20.83;10.20;;;;;;;10.54;100.00;98649.34;6111442;19;20470;-74
2023/09/28 06:20:05;;;;;;;29.23;11.50;;;;;;;10.59;100.00;98645.44;6111571;19;19999;-74
2023/09/28 06:22:09;;;;;;;26.75;10.75;;;;;;;10.62;100.00;98642.75;6111229;19;20018;-74
2023/09/28 06:24:10;;;;;;;18.08;9.65;;;;;;;10.66;100.00;98643.59;6112137;19;20946;-75
2023/09/28 06:26:12;;;;;;;28.42;11.85;;;;;;;10.74;100.00;98640.91;6112542;19;20023;-74
2023/09/28 06:28:12;;;;;;;30.63;12.70;;;;;;;10.78;100.00;98644.53;6112464;19;21332;-74
2023/09/28 06:30:12;;;;;;;20.83;11.27;;;;;;;10.85;100.00;98650.97;6110123;19;20006;-74
2023/09/28 06:32:13;;;;;;;17.92;11.40;;;;;;;10.91;100.00;98645.88;6112862;19;20026;-75
2023/09/28 06:34:13;;;;;;;19.05;10.90;;;;;;;10.96;100.00;98654.66;6112275;19;20007;-74
2023/09/28 06:36:16;;;;;;;24.63;11.90;;;;;;;11.06;100.00;98655.19;6111273;19;20371;-74
2023/09/28 06:38:17;;;;;;;18.50;10.85;;;;;;;11.13;100.00;98652.50;6112068;19;20009;-75
2023/09/28 06:40:17;;;;;;;19.63;11.85;;;;;;;11.22;100.00;98651.03;6109409;19;20007;-75
2023/09/28 06:42:18;;;;;;;17.58;11.20;;;;;;;11.32;100.00;98657.06;6112508;19;20474;-74
2023/09/28 06:44:18;;;;;;;16.77;11.13;;;;;;;11.35;100.00;98651.56;6111908;19;20010;-74
2023/09/28 06:46:21;;;;;;;25.05;11.27;;;;;;;11.42;100.00;98651.66;6111341;19;20007;-75
2023/09/28 06:48:22;;;;;;;;;;;;;;;11.50;100.00;98655.28;6113377;19;20165;-73
2023/09/28 06:50:22;;;;;;;20.25;11.30;;;;;;;11.56;100.00;98658.50;6099760;19;20363;-75
2023/09/28 06:52:23;;;;;;;14.50;10.30;;;;;;;11.58;100.00;98654.16;6110699;19;20020;-75
2023/09/28 06:54:24;;;;;;;14.65;10.23;;;;;;;11.60;100.00;98659.34;6112619;19;20041;-75
2023/09/28 06:56:26;;;;;;;16.95;11.65;;;;;;;11.64;100.00;98666.50;6109759;19;20030;-75
2023/09/28 06:58:27;;;;;;;15.98;11.48;;;;;;;11.69;100.00;98665.38;6110605;19;20014;-75
2023/09/28 07:00:29;;;;;;;15.68;10.88;;;;;;;11.75;100.00;98672.16;6109849;19;20031;-75
2023/09/28 07:02:29;;;;;;;15.57;11.73;;;;;;;11.80;100.00;98678.19;6111992;19;20324;-75
2023/09/28 07:04:30;;;;;;;30.88;12.48;;;;;;;11.97;100.00;98684.28;6111237;19;20017;-74
2023/09/28 07:06:30;;;;;;;20.85;12.45;;;;;;;12.08;100.00;98686.00;6109061;19;20003;-74
2023/09/28 07:08:31;;;;;;;15.60;11.73;;;;;;;12.14;100.00;98680.88;6111383;19;20455;-74
2023/09/28 07:10:35;;;;;;;16.52;11.27;;;;;;;12.19;100.00;98680.53;6108670;19;20011;-75
2023/09/28 07:12:36;;;;;;;20.08;11.88;;;;;;;12.26;100.00;98677.03;6110091;19;20371;-74
2023/09/28 07:14:36;;;;;;;24.15;12.45;;;;;;;12.40;100.00;98682.66;6108391;19;20014;-75
2023/09/28 07:16:38;;;;;;;20.55;12.70;;;;;;;12.60;100.00;98678.44;6111518;19;20006;-75
2023/09/28 07:18:38;;;;;;;19.57;12.00;;;;;;;12.73;100.00;98665.03;6110897;19;20011;-75
2023/09/28 07:20:39;;;;;;;17.35;10.68;;;;;;;12.82;100.00;98665.47;6107613;19;20784;-75
2023/09/28 07:22:39;;;;;;;20.98;11.43;;;;;;;12.90;100.00;98667.09;6109795;19;20533;-75
2023/09/28 07:24:40;;;;;;;16.55;10.35;;;;;;;12.98;100.00;98664.38;6111684;19;20522;-75
2023/09/28 07:26:41;;;;;;;13.65;10.73;;;;;;;13.10;100.00;98683.50;6108503;19;20021;-75
2023/09/28 07:28:45;;;;;;;20.77;11.10;;;;;;;13.19;100.00;98678.38;6110344;19;20003;-75
2023/09/28 07:30:45;;;;;;;27.38;10.70;;;;;;;13.38;100.00;98672.50;6109451;19;20018;-75
2023/09/28 07:32:47;;;;;;;24.50;11.43;;;;;;;13.51;100.00;98664.63;6110263;19;20033;-74
2023/09/28 07:34:48;;;;;;;18.85;11.55;;;;;;;13.68;100.00;98674.19;6110066;19;20467;-74
2023/09/28 07:36:48;;;;;;;16.83;10.95;;;;;;;13.84;100.00;98676.59;6110056;19;20598;-75
2023/09/28 07:38:50;;;;;;;18.35;11.70;;;;;;;14.01;100.00;98687.75;6110705;19;20006;-74
2023/09/28 07:40:50;;;;;;;19.40;11.48;;;;;;;14.16;100.00;98687.78;6108432;19;20003;-74
2023/09/28 07:42:50;;;;;;;23.50;11.00;;;;;;;14.29;100.00;98684.19;6109959;19;20003;-74
2023/09/28 07:44:54;;;;;;;15.95;10.90;;;;;;;14.43;100.00;98688.94;6110757;19;20049;-75
2023/09/28 07:46:54;;;;;;;19.50;11.85;;;;;;;14.56;100.00;98690.19;6110105;19;20002;-75
2023/09/28 07:48:56;;;;;;;17.45;10.88;;;;;;;14.70;100.00;98692.13;6109412;19;20034;-74
2023/09/28 07:50:56;;;;;;;24.52;11.50;;;;;;;14.89;100.00;98691.72;6101838;19;20340;-75
2023/09/28 07:52:56;;;;;;;19.08;11.45;;;;;;;15.11;100.00;98695.22;6103272;19;20062;-76
2023/09/28 07:54:57;;;;;;;20.15;11.32;;;;;;;15.32;100.00;98690.78;6102665;19;20003;-74
2023/09/28 07:56:57;;;;;;;17.40;11.63;;;;;;;15.50;100.00;98699.84;6103259;19;20006;-75
2023/09/28 07:58:59;;;;;;;16.67;10.82;;;;;;;15.65;100.00;98700.59;6102794;19;20332;-74
2023/09/28 08:01:01;;;;;;;18.13;10.77;;;;;;;15.83;100.00;98703.28;6101477;19;20007;-75
2023/09/28 08:03:01;;;;;;;15.35;10.63;;;;;;;15.96;100.00;98709.97;6103784;19;20011;-75
2023/09/28 08:05:02;;;;;;;17.48;10.63;;;;;;;16.00;100.00;98702.38;6103705;19;20007;-75
2023/09/28 08:07:03;;;;;;;23.23;10.40;;;;;;;16.14;100.00;98707.09;6103470;19;20195;-75
2023/09/28 08:09:03;;;;;;;12.20;9.32;;;;;;;16.19;100.00;98713.00;6103088;19;20034;-74
2023/09/28 08:11:03;;;;;;;17.98;10.13;;;;;;;16.23;100.00;98713.78;6102355;19;20007;-74
2023/09/28 08:13:04;;;;;;;15.95;9.75;;;;;;;16.24;100.00;98711.78;6103316;19;20034;-75
2023/09/28 08:15:05;;;;;;;13.75;9.05;;;;;;;16.23;100.00;98718.56;6100728;19;20003;-75
2023/09/28 08:17:06;;;;;;;14.27;8.07;;;;;;;16.20;100.00;98711.00;6102577;19;20473;-75
2023/09/28 08:19:06;;;;;;;12.18;9.43;;;;;;;16.21;100.00;98705.00;6101678;19;20090;-75
2023/09/28 08:21:08;;;;;;;13.65;8.45;;;;;;;16.23;100.00;98707.41;6101559;19;20027;-75
2023/09/28 08:23:08;;;;;;;10.27;7.60;;;;;;;16.26;100.00;98696.19;6099323;19;20098;-75
2023/09/28 08:25:09;;;;;;;19.30;10.07;;;;;;;16.35;100.00;98694.94;6102817;19;20455;-74
2023/09/28 08:27:09;;;;;;;13.30;9.70;;;;;;;16.47;100.00;98698.03;6102450;19;20019;-75
2023/09/28 08:29:10;;;;;;;16.55;9.63;;;;;;;16.59;100.00;98702.31;6102003;19;20390;-75
2023/09/28 08:31:10;;;;;;;14.52;9.30;;;;;;;16.72;100.00;98697.03;6101375;19;20026;-75
2023/09/28 08:33:11;;;;;;;17.17;9.10;;;;;;;16.82;100.00;98696.94;6101271;19;20402;-75
2023/09/28 08:35:11;;;;;;;12.40;8.90;;;;;;;16.93;100.00;98704.41;6102188;19;20034;-75
2023/09/28 08:37:11;;;;;;;13.00;8.45;;;;;;;17.02;100.00;98693.53;6102091;19;20029;-75
2023/09/28 08:39:12;;;;;;;14.15;9.15;;;;;;;17.10;100.00;98695.81;6101344;19;20449;-75
2023/09/28 08:41:16;;;;;;;10.77;8.68;;;;;;;17.18;100.00;98716.13;6100681;19;20010;-75
2023/09/28 08:43:21;;;;;;;10.55;8.13;;;;;;;17.27;100.00;98715.63;6100690;19;20014;-75
2023/09/28 08:45:23;;;;;;;13.10;8.85;;;;;;;17.33;100.00;98713.94;6101797;19;20027;-75
2023/09/28 08:47:24;;;;;;;10.85;7.72;;;;;;;17.37;100.00;98714.69;6100166;19;20003;-75
2023/09/28 08:49:31;;;;;;;12.57;8.52;;;;;;;17.41;100.00;98721.84;6100160;19;20532;-75
2023/09/28 08:51:33;;;;;;;11.55;7.80;;;;;;;17.49;100.00;98716.94;6106465;19;20006;-75
2023/09/28 08:53:36;;;;;;;11.25;8.10;;;;;;;17.53;100.00;98719.69;6108061;19;20010;-75
2023/09/28 08:55:37;;;;;;;;;;;;;;;17.58;100.00;98719.25;6108250;19;20543;-75
2023/09/28 08:57:40;;;;;;;11.15;7.47;;;;;;;17.62;100.00;98728.38;6107603;19;19921;-75
2023/09/28 08:59:42;;;;;;;9.15;7.63;;;;;;;17.66;100.00;98721.53;6107079;19;20017;-74
2023/09/28 09:01:44;;;;;;;13.25;7.90;;;;;;;17.72;100.00;98718.28;6107497;19;20463;-75
2023/09/28 09:03:44;;;;;;;15.88;8.13;;;;;;;17.77;100.00;98729.78;6106974;19;20098;-75
2023/09/28 09:05:46;;;;;;;10.75;7.55;;;;;;;17.85;100.00;98730.50;6108491;19;20026;-75
2023/09/28 09:07:47;;;;;;;12.80;8.80;;;;;;;17.92;100.00;98722.78;6108437;19;20490;-75
2023/09/28 09:09:50;;;;;;;17.02;11.05;;;;;;;18.15;100.00;98729.69;6105502;19;20385;-75
2023/09/28 09:11:52;;;;;;;14.80;8.63;;;;;;;18.35;100.00;98727.75;6106977;19;20011;-75
2023/09/28 09:13:54;;;;;;;11.23;7.57;;;;;;;18.42;100.00;98733.25;6107236;19;20662;-75
2023/09/28 09:15:55;;;;;;;15.95;7.95;;;;;;;18.57;100.00;98735.81;6102339;19;20473;-75